sensor_id;sensor_type;location;lat;lon;timestamp;pressure;altitude;pressure_sealevel;temperature;humidity
80654;BME280;70020;45.524;10.240;2023-07-31T00:01:47;63988.56;;;-140.55;100.00
80654;BME280;70020;45.524;10.240;2023-07-31T00:05:12;63988.56;;;-140.55;100.00
80654;BME280;70020;45.524;10.240;2023-07-31T00:08:36;63988.56;;;-140.55;100.00
80654;BME280;70020;45.524;10.240;2023-07-31T00:12:01;63988.56;;;-140.55;100.00
80654;BME280;70020;45.524;10.240;2023-07-31T00:15:25;63988.56;;;-140.55;100.00
80654;BME280;70020;45.524;10.240;2023-07-31T00:18:50;63988.56;;;-140.55;100.00
80654;BME280;70020;45.524;10.240;2023-07-31T00:22:14;63988.56;;;-140.55;100.00
80654;BME280;70020;45.524;10.240;2023-07-31T00:25:39;63988.56;;;-140.55;100.00
80654;BME280;70020;45.524;10.240;2023-07-31T00:29:03;63988.56;;;-140.55;100.00
80654;BME280;70020;45.524;10.240;2023-07-31T00:32:27;63988.56;;;-140.55;100.00
80654;BME280;70020;45.524;10.240;2023-07-31T00:35:52;63988.56;;;-140.55;100.00
80654;BME280;70020;45.524;10.240;2023-07-31T00:39:16;63988.56;;;-140.55;100.00
80654;BME280;70020;45.524;10.240;2023-07-31T00:42:41;63988.56;;;-140.55;100.00
80654;BME280;70020;45.524;10.240;2023-07-31T00:46:06;63988.56;;;-140.55;100.00
80654;BME280;70020;45.524;10.240;2023-07-31T00:49:31;63988.56;;;-140.55;100.00
80654;BME280;70020;45.524;10.240;2023-07-31T00:52:56;63988.56;;;-140.55;100.00
80654;BME280;70020;45.524;10.240;2023-07-31T00:56:21;63988.56;;;-140.55;100.00
80654;BME280;70020;45.524;10.240;2023-07-31T00:59:45;63988.56;;;-140.55;100.00
80654;BME280;70020;45.524;10.240;2023-07-31T01:03:10;63988.56;;;-140.55;100.00
80654;BME280;70020;45.524;10.240;2023-07-31T01:10:27;63988.56;;;-140.55;100.00
80654;BME280;70020;45.524;10.240;2023-07-31T01:13:55;63988.56;;;-140.55;100.00
80654;BME280;70020;45.524;10.240;2023-07-31T01:17:19;63988.56;;;-140.55;100.00
80654;BME280;70020;45.524;10.240;2023-07-31T01:20:44;63988.56;;;-140.55;100.00
80654;BME280;70020;45.524;10.240;2023-07-31T01:28:32;63988.56;;;-140.55;100.00
80654;BME280;70020;45.524;10.240;2023-07-31T01:32:01;63988.56;;;-140.55;100.00
80654;BME280;70020;45.524;10.240;2023-07-31T01:35:26;63988.56;;;-140.55;100.00
80654;BME280;70020;45.524;10.240;2023-07-31T01:38:51;63988.56;;;-140.55;100.00
80654;BME280;70020;45.524;10.240;2023-07-31T01:42:16;63988.56;;;-140.55;100.00
80654;BME280;70020;45.524;10.240;2023-07-31T01:45:40;63988.56;;;-140.55;100.00
80654;BME280;70020;45.524;10.240;2023-07-31T01:49:05;63988.56;;;-140.55;100.00
80654;BME280;70020;45.524;10.240;2023-07-31T01:52:29;63988.56;;;-140.55;100.00
80654;BME280;70020;45.524;10.240;2023-07-31T01:55:55;63988.56;;;-140.55;100.00
80654;BME280;70020;45.524;10.240;2023-07-31T01:59:19;63988.56;;;-140.55;100.00
80654;BME280;70020;45.524;10.240;2023-07-31T02:02:44;63988.56;;;-140.55;100.00
80654;BME280;70020;45.524;10.240;2023-07-31T02:06:08;63988.56;;;-140.55;100.00
80654;BME280;70020;45.524;10.240;2023-07-31T02:09:32;63988.56;;;-140.55;100.00
80654;BME280;70020;45.524;10.240;2023-07-31T02:12:57;63988.56;;;-140.55;100.00
80654;BME280;70020;45.524;10.240;2023-07-31T02:16:21;63988.56;;;-140.55;100.00
80654;BME280;70020;45.524;10.240;2023-07-31T02:19:46;63988.56;;;-140.55;100.00
80654;BME280;70020;45.524;10.240;2023-07-31T02:23:11;63988.56;;;-140.55;100.00
80654;BME280;70020;45.524;10.240;2023-07-31T02:26:35;63988.56;;;-140.55;100.00
80654;BME280;70020;45.524;10.240;2023-07-31T02:30:00;63988.56;;;-140.55;100.00
80654;BME280;70020;45.524;10.240;2023-07-31T02:33:24;63988.56;;;-140.55;100.00
80654;BME280;70020;45.524;10.240;2023-07-31T02:36:49;63988.56;;;-140.55;100.00
80654;BME280;70020;45.524;10.240;2023-07-31T02:40:13;63988.56;;;-140.55;100.00
80654;BME280;70020;45.524;10.240;2023-07-31T02:43:37;63988.56;;;-140.55;100.00
80654;BME280;70020;45.524;10.240;2023-07-31T02:47:02;63988.56;;;-140.55;100.00
80654;BME280;70020;45.524;10.240;2023-07-31T02:50:27;63988.56;;;-140.55;100.00
80654;BME280;70020;45.524;10.240;2023-07-31T02:53:55;63988.56;;;-140.55;100.00
80654;BME280;70020;45.524;10.240;2023-07-31T02:57:20;63988.56;;;-140.55;100.00
80654;BME280;70020;45.524;10.240;2023-07-31T03:00:44;63988.56;;;-140.55;100.00
80654;BME280;70020;45.524;10.240;2023-07-31T03:04:08;63988.56;;;-140.55;100.00
80654;BME280;70020;45.524;10.240;2023-07-31T03:07:33;63988.56;;;-140.55;100.00
80654;BME280;70020;45.524;10.240;2023-07-31T03:10:58;63988.56;;;-140.55;100.00
80654;BME280;70020;45.524;10.240;2023-07-31T03:14:22;63988.56;;;-140.55;100.00
80654;BME280;70020;45.524;10.240;2023-07-31T03:17:46;63988.56;;;-140.55;100.00
80654;BME280;70020;45.524;10.240;2023-07-31T03:21:11;63988.56;;;-140.55;100.00
80654;BME280;70020;45.524;10.240;2023-07-31T03:24:36;63988.56;;;-140.55;100.00
80654;BME280;70020;45.524;10.240;2023-07-31T03:28:01;63988.56;;;-140.55;100.00
80654;BME280;70020;45.524;10.240;2023-07-31T03:31:25;63988.56;;;-140.55;100.00
80654;BME280;70020;45.524;10.240;2023-07-31T03:34:50;63988.56;;;-140.55;100.00
80654;BME280;70020;45.524;10.240;2023-07-31T03:38:14;63988.56;;;-140.55;100.00
80654;BME280;70020;45.524;10.240;2023-07-31T03:41:38;63988.56;;;-140.55;100.00
80654;BME280;70020;45.524;10.240;2023-07-31T03:45:03;63988.56;;;-140.55;100.00
80654;BME280;70020;45.524;10.240;2023-07-31T03:48:28;63988.56;;;-140.55;100.00
80654;BME280;70020;45.524;10.240;2023-07-31T03:51:53;63988.56;;;-140.55;100.00
80654;BME280;70020;45.524;10.240;2023-07-31T03:55:18;63988.56;;;-140.55;100.00
80654;BME280;70020;45.524;10.240;2023-07-31T03:58:42;63988.56;;;-140.55;100.00
80654;BME280;70020;45.524;10.240;2023-07-31T04:02:07;63988.56;;;-140.55;100.00
80654;BME280;70020;45.524;10.240;2023-07-31T04:05:31;63988.56;;;-140.55;100.00
80654;BME280;70020;45.524;10.240;2023-07-31T04:08:56;63988.56;;;-140.55;100.00
80654;BME280;70020;45.524;10.240;2023-07-31T04:12:20;63988.56;;;-140.55;100.00
80654;BME280;70020;45.524;10.240;2023-07-31T04:15:48;63988.56;;;-140.55;100.00
80654;BME280;70020;45.524;10.240;2023-07-31T04:19:12;63988.56;;;-140.55;100.00
80654;BME280;70020;45.524;10.240;2023-07-31T04:22:40;63988.56;;;-140.55;100.00
80654;BME280;70020;45.524;10.240;2023-07-31T04:26:06;63988.56;;;-140.55;100.00
80654;BME280;70020;45.524;10.240;2023-07-31T04:29:31;63988.56;;;-140.55;100.00
80654;BME280;70020;45.524;10.240;2023-07-31T04:32:55;63988.56;;;-140.55;100.00
80654;BME280;70020;45.524;10.240;2023-07-31T04:36:20;63988.56;;;-140.55;100.00
80654;BME280;70020;45.524;10.240;2023-07-31T04:39:44;63988.56;;;-140.55;100.00
80654;BME280;70020;45.524;10.240;2023-07-31T04:43:09;63988.56;;;-140.55;100.00
80654;BME280;70020;45.524;10.240;2023-07-31T04:46:34;63988.56;;;-140.55;100.00
80654;BME280;70020;45.524;10.240;2023-07-31T04:49:58;63988.56;;;-140.55;100.00
80654;BME280;70020;45.524;10.240;2023-07-31T04:53:23;63988.56;;;-140.55;100.00
80654;BME280;70020;45.524;10.240;2023-07-31T04:56:47;63988.56;;;-140.55;100.00
80654;BME280;70020;45.524;10.240;2023-07-31T05:00:11;63988.56;;;-140.55;100.00
80654;BME280;70020;45.524;10.240;2023-07-31T05:03:36;63988.56;;;-140.55;100.00
80654;BME280;70020;45.524;10.240;2023-07-31T05:07:00;63988.56;;;-140.55;100.00
80654;BME280;70020;45.524;10.240;2023-07-31T05:10:24;63988.56;;;-140.55;100.00
80654;BME280;70020;45.524;10.240;2023-07-31T05:13:49;63988.56;;;-140.55;100.00
80654;BME280;70020;45.524;10.240;2023-07-31T05:17:13;63988.56;;;-140.55;100.00
80654;BME280;70020;45.524;10.240;2023-07-31T05:20:38;63988.56;;;-140.55;100.00
80654;BME280;70020;45.524;10.240;2023-07-31T05:24:03;63988.56;;;-140.55;100.00
80654;BME280;70020;45.524;10.240;2023-07-31T05:27:27;63988.56;;;-140.55;100.00
80654;BME280;70020;45.524;10.240;2023-07-31T05:30:58;63988.56;;;-140.55;100.00
80654;BME280;70020;45.524;10.240;2023-07-31T05:34:22;63988.56;;;-140.55;100.00
80654;BME280;70020;45.524;10.240;2023-07-31T05:37:46;63988.56;;;-140.55;100.00
80654;BME280;70020;45.524;10.240;2023-07-31T05:41:12;63988.56;;;-140.55;100.00
80654;BME280;70020;45.524;10.240;2023-07-31T05:44:36;63988.56;;;-140.55;100.00
80654;BME280;70020;45.524;10.240;2023-07-31T05:48:01;63988.56;;;-140.55;100.00
80654;BME280;70020;45.524;10.240;2023-07-31T05:51:25;63988.56;;;-140.55;100.00
80654;BME280;70020;45.524;10.240;2023-07-31T05:54:49;63988.56;;;-140.55;100.00
80654;BME280;70020;45.524;10.240;2023-07-31T05:58:14;63988.56;;;-140.55;100.00
80654;BME280;70020;45.524;10.240;2023-07-31T06:01:39;63988.56;;;-140.55;100.00
80654;BME280;70020;45.524;10.240;2023-07-31T06:05:04;63988.56;;;-140.55;100.00
80654;BME280;70020;45.524;10.240;2023-07-31T06:08:29;63988.56;;;-140.55;100.00
80654;BME280;70020;45.524;10.240;2023-07-31T06:11:53;63988.56;;;-140.55;100.00
80654;BME280;70020;45.524;10.240;2023-07-31T06:15:17;63988.56;;;-140.55;100.00
80654;BME280;70020;45.524;10.240;2023-07-31T06:18:43;63988.56;;;-140.55;100.00
80654;BME280;70020;45.524;10.240;2023-07-31T06:21:55;63988.56;;;-140.55;100.00
80654;BME280;70020;45.524;10.240;2023-07-31T06:25:19;63988.56;;;-140.55;100.00
80654;BME280;70020;45.524;10.240;2023-07-31T06:28:41;63988.56;;;-140.55;100.00
80654;BME280;70020;45.524;10.240;2023-07-31T06:32:06;63988.56;;;-140.55;100.00
80654;BME280;70020;45.524;10.240;2023-07-31T06:35:30;63988.56;;;-140.55;100.00
80654;BME280;70020;45.524;10.240;2023-07-31T06:38:54;63988.56;;;-140.55;100.00
80654;BME280;70020;45.524;10.240;2023-07-31T06:42:19;63988.56;;;-140.55;100.00
80654;BME280;70020;45.524;10.240;2023-07-31T06:45:44;63988.56;;;-140.55;100.00
80654;BME280;70020;45.524;10.240;2023-07-31T06:49:08;63988.56;;;-140.55;100.00
80654;BME280;70020;45.524;10.240;2023-07-31T06:52:32;63988.56;;;-140.55;100.00
80654;BME280;70020;45.524;10.240;2023-07-31T06:56:01;63988.56;;;-140.55;100.00
80654;BME280;70020;45.524;10.240;2023-07-31T06:59:25;63988.56;;;-140.55;100.00
80654;BME280;70020;45.524;10.240;2023-07-31T07:02:50;63988.56;;;-140.55;100.00
80654;BME280;70020;45.524;10.240;2023-07-31T07:06:01;63988.56;;;-140.55;100.00
80654;BME280;70020;45.524;10.240;2023-07-31T07:09:25;63988.56;;;-140.55;100.00
80654;BME280;70020;45.524;10.240;2023-07-31T07:12:50;63988.56;;;-140.55;100.00
80654;BME280;70020;45.524;10.240;2023-07-31T07:16:14;63988.56;;;-140.55;100.00
80654;BME280;70020;45.524;10.240;2023-07-31T07:19:40;63988.56;;;-140.55;100.00
80654;BME280;70020;45.524;10.240;2023-07-31T07:23:04;63988.56;;;-140.55;100.00
80654;BME280;70020;45.524;10.240;2023-07-31T07:26:29;63988.56;;;-140.55;100.00
80654;BME280;70020;45.524;10.240;2023-07-31T07:29:53;63988.56;;;-140.55;100.00
80654;BME280;70020;45.524;10.240;2023-07-31T07:33:17;63988.56;;;-140.55;100.00
80654;BME280;70020;45.524;10.240;2023-07-31T07:36:41;63988.56;;;-140.55;100.00
80654;BME280;70020;45.524;10.240;2023-07-31T07:40:07;63988.56;;;-140.55;100.00
80654;BME280;70020;45.524;10.240;2023-07-31T07:43:31;63988.56;;;-140.55;100.00
80654;BME280;70020;45.524;10.240;2023-07-31T07:46:54;63988.56;;;-140.55;100.00
80654;BME280;70020;45.524;10.240;2023-07-31T07:50:18;63988.56;;;-140.55;100.00
80654;BME280;70020;45.524;10.240;2023-07-31T07:53:46;63988.56;;;-140.55;100.00
80654;BME280;70020;45.524;10.240;2023-07-31T07:56:42;63988.56;;;-140.55;100.00
80654;BME280;70020;45.524;10.240;2023-07-31T08:00:06;63988.56;;;-140.55;100.00
80654;BME280;70020;45.524;10.240;2023-07-31T08:03:31;63988.56;;;-140.55;100.00
80654;BME280;70020;45.524;10.240;2023-07-31T08:06:48;63988.56;;;-140.55;100.00
80654;BME280;70020;45.524;10.240;2023-07-31T08:09:17;63988.56;;;-140.55;100.00
80654;BME280;70020;45.524;10.240;2023-07-31T08:12:41;63988.56;;;-140.55;100.00
80654;BME280;70020;45.524;10.240;2023-07-31T08:16:06;63988.56;;;-140.55;100.00
80654;BME280;70020;45.524;10.240;2023-07-31T08:19:30;63988.56;;;-140.55;100.00
80654;BME280;70020;45.524;10.240;2023-07-31T08:22:55;63988.56;;;-140.55;100.00
80654;BME280;70020;45.524;10.240;2023-07-31T08:26:19;63988.56;;;-140.55;100.00
80654;BME280;70020;45.524;10.240;2023-07-31T08:29:45;63988.56;;;-140.55;100.00
80654;BME280;70020;45.524;10.240;2023-07-31T08:33:09;63988.56;;;-140.55;100.00
80654;BME280;70020;45.524;10.240;2023-07-31T08:36:34;63988.56;;;-140.55;100.00
80654;BME280;70020;45.524;10.240;2023-07-31T08:39:59;63988.56;;;-140.55;100.00
80654;BME280;70020;45.524;10.240;2023-07-31T08:43:25;63988.56;;;-140.55;100.00
80654;BME280;70020;45.524;10.240;2023-07-31T08:46:49;63988.56;;;-140.55;100.00
80654;BME280;70020;45.524;10.240;2023-07-31T08:50:16;63988.56;;;-140.55;100.00
80654;BME280;70020;45.524;10.240;2023-07-31T08:53:40;63988.56;;;-140.55;100.00
80654;BME280;70020;45.524;10.240;2023-07-31T08:57:05;63988.56;;;-140.55;100.00
80654;BME280;70020;45.524;10.240;2023-07-31T09:00:33;63988.56;;;-140.55;100.00
80654;BME280;70020;45.524;10.240;2023-07-31T09:04:01;63988.56;;;-140.55;100.00
80654;BME280;70020;45.524;10.240;2023-07-31T09:07:26;63988.56;;;-140.55;100.00
80654;BME280;70020;45.524;10.240;2023-07-31T09:10:51;63988.56;;;-140.55;100.00
80654;BME280;70020;45.524;10.240;2023-07-31T09:14:17;63988.56;;;-140.55;100.00
80654;BME280;70020;45.524;10.240;2023-07-31T09:17:59;63988.56;;;-140.55;100.00
80654;BME280;70020;45.524;10.240;2023-07-31T09:21:24;63988.56;;;-140.55;100.00
80654;BME280;70020;45.524;10.240;2023-07-31T09:24:49;63988.56;;;-140.55;100.00
80654;BME280;70020;45.524;10.240;2023-07-31T09:27:57;63988.56;;;-140.55;100.00
80654;BME280;70020;45.524;10.240;2023-07-31T09:38:46;63988.56;;;-140.55;100.00
80654;BME280;70020;45.524;10.240;2023-07-31T09:42:11;63988.56;;;-140.55;100.00
80654;BME280;70020;45.524;10.240;2023-07-31T09:45:40;63988.56;;;-140.55;100.00
80654;BME280;70020;45.524;10.240;2023-07-31T09:49:10;63988.56;;;-140.55;100.00
80654;BME280;70020;45.524;10.240;2023-07-31T09:52:37;63988.56;;;-140.55;100.00
80654;BME280;70020;45.524;10.240;2023-07-31T09:56:02;63988.56;;;-140.55;100.00
80654;BME280;70020;45.524;10.240;2023-07-31T09:59:27;63988.56;;;-140.55;100.00
80654;BME280;70020;45.524;10.240;2023-07-31T10:02:53;63988.56;;;-140.55;100.00
80654;BME280;70020;45.524;10.240;2023-07-31T10:06:17;63988.56;;;-140.55;100.00
80654;BME280;70020;45.524;10.240;2023-07-31T10:09:44;63988.56;;;-140.55;100.00
80654;BME280;70020;45.524;10.240;2023-07-31T10:13:11;63988.56;;;-140.55;100.00
80654;BME280;70020;45.524;10.240;2023-07-31T10:16:08;63988.56;;;-140.55;100.00
80654;BME280;70020;45.524;10.240;2023-07-31T10:19:33;63988.56;;;-140.55;100.00
80654;BME280;70020;45.524;10.240;2023-07-31T10:22:58;63988.56;;;-140.55;100.00
80654;BME280;70020;45.524;10.240;2023-07-31T10:26:24;63988.56;;;-140.55;100.00
80654;BME280;70020;45.524;10.240;2023-07-31T10:29:50;63988.56;;;-140.55;100.00
80654;BME280;70020;45.524;10.240;2023-07-31T10:33:16;63988.56;;;-140.55;100.00
80654;BME280;70020;45.524;10.240;2023-07-31T10:36:41;63988.56;;;-140.55;100.00
80654;BME280;70020;45.524;10.240;2023-07-31T10:40:26;63988.56;;;-140.55;100.00
80654;BME280;70020;45.524;10.240;2023-07-31T10:43:54;63988.56;;;-140.55;100.00
80654;BME280;70020;45.524;10.240;2023-07-31T10:47:18;63988.56;;;-140.55;100.00
80654;BME280;70020;45.524;10.240;2023-07-31T10:50:48;63988.56;;;-140.55;100.00
80654;BME280;70020;45.524;10.240;2023-07-31T10:54:27;63988.56;;;-140.55;100.00
80654;BME280;70020;45.524;10.240;2023-07-31T10:57:52;63988.56;;;-140.55;100.00
80654;BME280;70020;45.524;10.240;2023-07-31T11:01:16;63988.56;;;-140.55;100.00
80654;BME280;70020;45.524;10.240;2023-07-31T11:05:10;63988.56;;;-140.55;100.00
80654;BME280;70020;45.524;10.240;2023-07-31T11:08:49;63988.56;;;-140.55;100.00
80654;BME280;70020;45.524;10.240;2023-07-31T11:12:15;63988.56;;;-140.55;100.00
80654;BME280;70020;45.524;10.240;2023-07-31T11:15:42;63988.56;;;-140.55;100.00
80654;BME280;70020;45.524;10.240;2023-07-31T11:19:08;63988.56;;;-140.55;100.00
80654;BME280;70020;45.524;10.240;2023-07-31T11:22:32;63988.56;;;-140.55;100.00
80654;BME280;70020;45.524;10.240;2023-07-31T11:26:00;63988.56;;;-140.55;100.00
80654;BME280;70020;45.524;10.240;2023-07-31T11:29:29;63988.56;;;-140.55;100.00
80654;BME280;70020;45.524;10.240;2023-07-31T11:32:49;63988.56;;;-140.55;100.00
80654;BME280;70020;45.524;10.240;2023-07-31T11:36:19;63988.56;;;-140.55;100.00
80654;BME280;70020;45.524;10.240;2023-07-31T11:39:43;63988.56;;;-140.55;100.00
80654;BME280;70020;45.524;10.240;2023-07-31T11:43:07;63988.56;;;-140.55;100.00
80654;BME280;70020;45.524;10.240;2023-07-31T11:46:34;63988.56;;;-140.55;100.00
80654;BME280;70020;45.524;10.240;2023-07-31T11:50:00;63988.56;;;-140.55;100.00
80654;BME280;70020;45.524;10.240;2023-07-31T11:53:28;63988.56;;;-140.55;100.00
80654;BME280;70020;45.524;10.240;2023-07-31T11:56:56;63988.56;;;-140.55;100.00
80654;BME280;70020;45.524;10.240;2023-07-31T12:00:21;63988.56;;;-140.55;100.00
80654;BME280;70020;45.524;10.240;2023-07-31T12:03:46;63988.56;;;-140.55;100.00
80654;BME280;70020;45.524;10.240;2023-07-31T12:07:10;63988.56;;;-140.55;100.00
80654;BME280;70020;45.524;10.240;2023-07-31T12:10:36;63988.56;;;-140.55;100.00
80654;BME280;70020;45.524;10.240;2023-07-31T12:14:03;63988.56;;;-140.55;100.00
80654;BME280;70020;45.524;10.240;2023-07-31T12:17:28;63988.56;;;-140.55;100.00
80654;BME280;70020;45.524;10.240;2023-07-31T12:20:59;63988.56;;;-140.55;100.00
80654;BME280;70020;45.524;10.240;2023-07-31T12:24:24;63988.56;;;-140.55;100.00
80654;BME280;70020;45.524;10.240;2023-07-31T12:27:51;63988.56;;;-140.55;100.00
80654;BME280;70020;45.524;10.240;2023-07-31T12:31:25;63988.56;;;-140.55;100.00
80654;BME280;70020;45.524;10.240;2023-07-31T12:34:51;63988.56;;;-140.55;100.00
80654;BME280;70020;45.524;10.240;2023-07-31T12:38:15;63988.56;;;-140.55;100.00
80654;BME280;70020;45.524;10.240;2023-07-31T12:41:38;63988.56;;;-140.55;100.00
80654;BME280;70020;45.524;10.240;2023-07-31T12:45:02;63988.56;;;-140.55;100.00
80654;BME280;70020;45.524;10.240;2023-07-31T12:48:22;63988.56;;;-140.55;100.00
80654;BME280;70020;45.524;10.240;2023-07-31T12:50:57;63988.56;;;-140.55;100.00
80654;BME280;70020;45.524;10.240;2023-07-31T12:54:21;63988.56;;;-140.55;100.00
80654;BME280;70020;45.524;10.240;2023-07-31T12:57:40;63988.56;;;-140.55;100.00
80654;BME280;70020;45.524;10.240;2023-07-31T13:00:13;63988.56;;;-140.55;100.00
80654;BME280;70020;45.524;10.240;2023-07-31T13:03:02;63988.56;;;-140.55;100.00
80654;BME280;70020;45.524;10.240;2023-07-31T13:05:28;63988.56;;;-140.55;100.00
80654;BME280;70020;45.524;10.240;2023-07-31T13:08:13;63988.56;;;-140.55;100.00
80654;BME280;70020;45.524;10.240;2023-07-31T13:10:41;63988.56;;;-140.55;100.00
80654;BME280;70020;45.524;10.240;2023-07-31T13:14:04;63988.56;;;-140.55;100.00
80654;BME280;70020;45.524;10.240;2023-07-31T13:16:30;63988.56;;;-140.55;100.00
80654;BME280;70020;45.524;10.240;2023-07-31T13:19:26;63988.56;;;-140.55;100.00
80654;BME280;70020;45.524;10.240;2023-07-31T13:22:23;63988.56;;;-140.55;100.00
80654;BME280;70020;45.524;10.240;2023-07-31T13:25:07;63988.56;;;-140.55;100.00
80654;BME280;70020;45.524;10.240;2023-07-31T13:27:35;63988.56;;;-140.55;100.00
80654;BME280;70020;45.524;10.240;2023-07-31T13:30:01;63988.56;;;-140.55;100.00
80654;BME280;70020;45.524;10.240;2023-07-31T13:32:27;63988.56;;;-140.55;100.00
80654;BME280;70020;45.524;10.240;2023-07-31T13:34:52;63988.56;;;-140.55;100.00
80654;BME280;70020;45.524;10.240;2023-07-31T13:37:19;63988.56;;;-140.55;100.00
80654;BME280;70020;45.524;10.240;2023-07-31T13:39:44;63988.56;;;-140.55;100.00
80654;BME280;70020;45.524;10.240;2023-07-31T13:42:10;63988.56;;;-140.55;100.00
80654;BME280;70020;45.524;10.240;2023-07-31T13:45:36;63988.56;;;-140.55;100.00
80654;BME280;70020;45.524;10.240;2023-07-31T13:49:01;63988.56;;;-140.55;100.00
80654;BME280;70020;45.524;10.240;2023-07-31T13:52:25;63988.56;;;-140.55;100.00
80654;BME280;70020;45.524;10.240;2023-07-31T13:55:49;63988.56;;;-140.55;100.00
80654;BME280;70020;45.524;10.240;2023-07-31T13:59:13;63988.56;;;-140.55;100.00
80654;BME280;70020;45.524;10.240;2023-07-31T14:02:38;63988.56;;;-140.55;100.00
80654;BME280;70020;45.524;10.240;2023-07-31T14:05:45;63988.56;;;-140.55;100.00
80654;BME280;70020;45.524;10.240;2023-07-31T14:09:02;63988.56;;;-140.55;100.00
80654;BME280;70020;45.524;10.240;2023-07-31T14:11:57;63988.56;;;-140.55;100.00
80654;BME280;70020;45.524;10.240;2023-07-31T14:14:39;63988.56;;;-140.55;100.00
80654;BME280;70020;45.524;10.240;2023-07-31T14:17:24;63988.56;;;-140.55;100.00
80654;BME280;70020;45.524;10.240;2023-07-31T14:20:30;63988.56;;;-140.55;100.00
80654;BME280;70020;45.524;10.240;2023-07-31T14:23:53;63988.56;;;-140.55;100.00
80654;BME280;70020;45.524;10.240;2023-07-31T14:27:16;63988.56;;;-140.55;100.00
80654;BME280;70020;45.524;10.240;2023-07-31T14:30:26;63988.56;;;-140.55;100.00
80654;BME280;70020;45.524;10.240;2023-07-31T14:33:18;63988.56;;;-140.55;100.00
80654;BME280;70020;45.524;10.240;2023-07-31T14:36:32;63988.56;;;-140.55;100.00
80654;BME280;70020;45.524;10.240;2023-07-31T14:39:55;63988.56;;;-140.55;100.00
80654;BME280;70020;45.524;10.240;2023-07-31T14:43:20;63988.56;;;-140.55;100.00
80654;BME280;70020;45.524;10.240;2023-07-31T14:46:44;63988.56;;;-140.55;100.00
80654;BME280;70020;45.524;10.240;2023-07-31T14:50:07;63988.56;;;-140.55;100.00
80654;BME280;70020;45.524;10.240;2023-07-31T14:52:54;63988.56;;;-140.55;100.00
80654;BME280;70020;45.524;10.240;2023-07-31T14:56:10;63988.56;;;-140.55;100.00
80654;BME280;70020;45.524;10.240;2023-07-31T14:59:06;63988.56;;;-140.55;100.00
80654;BME280;70020;45.524;10.240;2023-07-31T15:02:36;63988.56;;;-140.55;100.00
80654;BME280;70020;45.524;10.240;2023-07-31T15:05:04;63988.56;;;-140.55;100.00
80654;BME280;70020;45.524;10.240;2023-07-31T15:08:27;63988.56;;;-140.55;100.00
80654;BME280;70020;45.524;10.240;2023-07-31T15:11:18;63988.56;;;-140.55;100.00
80654;BME280;70020;45.524;10.240;2023-07-31T15:13:51;63988.56;;;-140.55;100.00
80654;BME280;70020;45.524;10.240;2023-07-31T15:16:58;63988.56;;;-140.55;100.00
80654;BME280;70020;45.524;10.240;2023-07-31T15:19:46;63988.56;;;-140.55;100.00
80654;BME280;70020;45.524;10.240;2023-07-31T15:22:37;63988.56;;;-140.55;100.00
80654;BME280;70020;45.524;10.240;2023-07-31T15:25:12;63988.56;;;-140.55;100.00
80654;BME280;70020;45.524;10.240;2023-07-31T15:28:09;63988.56;;;-140.55;100.00
80654;BME280;70020;45.524;10.240;2023-07-31T15:31:33;63988.56;;;-140.55;100.00
80654;BME280;70020;45.524;10.240;2023-07-31T15:34:13;63988.56;;;-140.55;100.00
80654;BME280;70020;45.524;10.240;2023-07-31T15:37:35;63988.56;;;-140.55;100.00
80654;BME280;70020;45.524;10.240;2023-07-31T15:40:45;63988.56;;;-140.55;100.00
80654;BME280;70020;45.524;10.240;2023-07-31T15:44:09;63988.56;;;-140.55;100.00
80654;BME280;70020;45.524;10.240;2023-07-31T15:47:28;63988.56;;;-140.55;100.00
80654;BME280;70020;45.524;10.240;2023-07-31T15:49:55;63988.56;;;-140.55;100.00
80654;BME280;70020;45.524;10.240;2023-07-31T15:52:20;63988.56;;;-140.55;100.00
80654;BME280;70020;45.524;10.240;2023-07-31T15:54:46;63988.56;;;-140.55;100.00
80654;BME280;70020;45.524;10.240;2023-07-31T15:57:12;63988.56;;;-140.55;100.00
80654;BME280;70020;45.524;10.240;2023-07-31T15:59:38;63988.56;;;-140.55;100.00
80654;BME280;70020;45.524;10.240;2023-07-31T16:03:02;63988.56;;;-140.55;100.00
80654;BME280;70020;45.524;10.240;2023-07-31T16:05:31;99573.84;;;48.77;18.76
80654;BME280;70020;45.524;10.240;2023-07-31T16:07:57;99573.47;;;49.12;18.75
80654;BME280;70020;45.524;10.240;2023-07-31T16:10:23;99564.16;;;49.20;18.57
80654;BME280;70020;45.524;10.240;2023-07-31T16:12:49;99563.75;;;49.58;18.25
80654;BME280;70020;45.524;10.240;2023-07-31T16:15:16;99573.97;;;50.02;17.80
80654;BME280;70020;45.524;10.240;2023-07-31T16:17:41;99573.75;;;50.24;17.43
80654;BME280;70020;45.524;10.240;2023-07-31T16:20:08;99578.72;;;50.63;17.11
80654;BME280;70020;45.524;10.240;2023-07-31T16:22:35;99579.28;;;51.00;17.06
80654;BME280;70020;45.524;10.240;2023-07-31T16:25:03;99573.13;;;51.56;15.83
80654;BME280;70020;45.524;10.240;2023-07-31T16:27:31;99577.47;;;51.92;15.83
80654;BME280;70020;45.524;10.240;2023-07-31T16:29:57;99576.59;;;52.45;15.31
80654;BME280;70020;45.524;10.240;2023-07-31T16:32:29;99576.47;;;52.83;14.73
80654;BME280;70020;45.524;10.240;2023-07-31T16:34:55;99569.88;;;52.56;14.46
80654;BME280;70020;45.524;10.240;2023-07-31T16:37:21;99575.34;;;52.74;15.28
80654;BME280;70020;45.524;10.240;2023-07-31T16:39:47;99568.19;;;52.90;14.72
80654;BME280;70020;45.524;10.240;2023-07-31T16:42:16;99567.72;;;53.03;14.71